This is the latest recevied weather packets stored in our database for station/object IV3CLI-10. If no packets are shown the sender has not sent any weather packets the latest 10 day(s).
| Time | Temp. | Humidity | Pressure | Rain* | Wind** | Luminosity | Snow |
|---|---|---|---|---|---|---|---|
| 1777516706 | 10° C | 85% | 1023.1 hPa | - | - | - | - |
| 1777515806 | 10° C | 83% | 1023 hPa | - | - | - | - |
| 1777514906 | 10° C | 83% | 1023 hPa | - | - | - | - |
| 1777514006 | 10.56° C | 78% | 1022.8 hPa | - | - | - | - |
| 1777513106 | 10.56° C | 78% | 1023 hPa | - | - | - | - |
| 1777512206 | 10.56° C | 79% | 1022.8 hPa | - | - | - | - |
| 1777511305 | 11.11° C | 84% | 1022.6 hPa | - | - | - | - |
| 1777510405 | 11.11° C | 92% | 1022.6 hPa | - | - | - | - |
| 1777509517 | 11.11° C | 100% | 1022.5 hPa | - | - | - | - |
| 1777509154 | 11.67° C | 100% | 1022.4 hPa | - | - | - | - |
| 1777509119 | 12.78° C | 95% | 1022 hPa | - | - | - | - |
| 1777509079 | 12.78° C | 100% | 1022 hPa | - | - | - | - |
| 1777508616 | 11.67° C | 100% | 1022.4 hPa | - | - | - | - |
| 1777507716 | 12.22° C | 100% | 1022.1 hPa | - | - | - | - |
| 1777506816 | 12.78° C | 95% | 1022 hPa | - | - | - | - |
| 1777505916 | 12.78° C | 100% | 1022 hPa | - | - | - | - |
| 1777505131 | 12.78° C | 100% | 1021.8 hPa | - | - | - | - |
| 1777505012 | 12.78° C | 100% | 1021.8 hPa | - | - | - | - |
| 1777504112 | 12.78° C | 98% | 1021.6 hPa | - | - | - | - |
| 1777503212 | 12.78° C | 100% | 1021.4 hPa | - | - | - | - |
| 1777502312 | 12.78° C | 95% | 1021.4 hPa | - | - | - | - |
| 1777501411 | 12.78° C | 100% | 1020.9 hPa | - | - | - | - |
| 1777500511 | 12.78° C | 100% | 1021.1 hPa | - | - | - | - |
| 1777499611 | 12.78° C | 100% | 1021.1 hPa | - | - | - | - |
| 1777498711 | 12.78° C | 100% | 1020.9 hPa | - | - | - | - |
* Rain since midnight (hover to see other rain measurements)
** Current wind speed in m/s (hover to see current wind gust speed)